Time;durP1;ratioP1;P1;durP2;ratioP2;P2;SDS_P1;SDS_P2;PMS_P1;PMS_P2;Temp;Humidity;BMP_temperature;BMP_pressure;BME280_temperature;BME280_humidity;BME280_pressure;Samples;Min_cycle;Max_cycle;Signal;HPM_P1;HPM_P2
2023/06/02 00:00:53;;;;;;;;;;;;;;;11.64;85.46;102273.06;10297151;28;20025;-79
2023/06/02 00:05:55;;;;;;;;;;;;;;;11.59;86.55;102271.91;10296601;28;19914;-79
2023/06/02 00:10:58;;;;;;;;;;;;;;;11.63;84.77;102267.84;10278075;28;19969;-80
2023/06/02 00:15:59;;;;;;;;;;;;;;;11.62;84.44;102271.56;10278391;28;19922;-79
2023/06/02 00:21:01;;;;;;;;;;;;;;;11.60;85.13;102268.19;10295822;28;20285;-79
2023/06/02 00:26:02;;;;;;;;;;;;;;;11.54;84.94;102275.13;10279619;28;20008;-79
2023/06/02 00:31:07;;;;;;;;;;;;;;;11.42;83.57;102279.19;10295930;28;19918;-80
2023/06/02 00:36:08;;;;;;;;;;;;;;;11.39;83.19;102274.97;10296355;28;19914;-79
2023/06/02 00:41:36;;;;;;;;;;;;;;;11.30;84.01;102267.00;10277951;28;20262;-80
2023/06/02 00:46:37;;;;;;;;;;;;;;;11.23;83.34;102271.38;10294583;28;20074;-79
2023/06/02 00:58:16;;;;;;;;;;;;;;;10.98;84.55;102265.94;10293970;28;19918;-79
2023/06/02 01:03:21;;;;;;;;;;;;;;;11.01;85.15;102270.16;10291598;28;19913;-80
2023/06/02 01:09:16;;;;;;;;;;;;;;;11.06;83.83;102268.66;10294421;28;19914;-79
2023/06/02 01:14:25;;;;;;;;;;;;;;;11.08;85.31;102285.63;10293248;28;20017;-80
2023/06/02 01:19:46;;;;;;;;;;;;;;;11.05;84.90;102285.94;10279385;28;19922;-79
2023/06/02 01:24:57;;;;;;;;;;;;;;;11.05;85.28;102279.69;10275612;28;19973;-79
2023/06/02 01:30:18;;;;;;;;;;;;;;;11.10;84.46;102280.00;10309068;28;19914;-79
2023/06/02 01:35:20;;;;;;;;;;;;;;;10.97;86.12;102277.78;10291145;28;20396;-80
2023/06/02 01:40:21;;;;;;;;;;;;;;;10.94;85.93;102265.44;10276695;28;19996;-80
2023/06/02 01:45:30;;;;;;;;;;;;;;;10.92;nan;102272.03;10292987;28;19925;-79
2023/06/02 01:50:32;;;;;;;;;;;;;;;10.89;86.73;102275.91;10293124;28;19922;-79
2023/06/02 01:55:34;;;;;;;;;;;;;;;10.87;86.55;102271.69;10292163;28;19922;-79
2023/06/02 02:00:35;;;;;;;;;;;;;;;10.89;86.11;102275.91;10276200;28;20351;-79
2023/06/02 02:05:36;;;;;;;;;;;;;;;10.92;85.54;102266.63;10277024;28;20001;-80
2023/06/02 02:10:36;;;;;;;;;;;;;;;10.90;85.58;102269.47;10275984;28;19940;-80
2023/06/02 02:15:38;;;;;;;;;;;;;;;10.88;86.27;102274.25;10274106;28;20372;-79
2023/06/02 02:20:39;;;;;;;;;;;;;;;10.88;86.50;102273.38;10291230;28;20285;-79
2023/06/02 02:25:40;;;;;;;;;;;;;;;10.78;87.06;102278.09;10276075;28;20234;-79
2023/06/02 02:30:40;;;;;;;;;;;;;;;10.70;87.05;102279.75;10275318;28;19918;-79
2023/06/02 02:35:42;;;;;;;;;;;;;;;10.67;87.45;102265.69;10274193;28;19918;-79
2023/06/02 02:40:42;;;;;;;;;;;;;;;10.67;86.98;102261.13;10274808;28;19925;-79
2023/06/02 02:45:46;;;;;;;;;;;;;;;10.70;86.20;102260.81;10274615;28;19919;-80
2023/06/02 02:50:48;;;;;;;;;;;;;;;10.68;87.35;102261.97;10274439;28;19968;-80
2023/06/02 02:55:50;;;;;;;;;;;;;;;10.69;87.54;102252.84;10274439;28;19918;-79
2023/06/02 03:00:53;;;;;;;;;;;;;;;10.61;87.90;102255.53;10293970;28;19920;-79
2023/06/02 03:06:07;;;;;;;;;;;;;;;10.61;87.90;102263.66;10298771;28;19918;-79
2023/06/02 03:11:08;;;;;;;;;;;;;;;10.53;88.55;102267.19;10295204;28;19918;-80
2023/06/02 03:16:08;;;;;;;;;;;;;;;10.54;88.42;102263.47;10280263;28;19980;-80
2023/06/02 03:21:09;;;;;;;;;;;;;;;10.57;87.18;102260.44;10280897;28;19914;-79
2023/06/02 03:26:11;;;;;;;;;;;;;;;10.53;88.06;102252.78;10242030;29;20361;-79
2023/06/02 03:31:11;;;;;;;;;;;;;;;10.58;87.45;102255.84;10240675;29;19971;-80
2023/06/02 03:36:12;;;;;;;;;;;;;;;10.58;87.60;102261.28;10240371;29;19941;-80
2023/06/02 03:41:13;;;;;;;;;;;;;;;10.51;88.30;102254.81;10240596;29;20349;-80
2023/06/02 03:46:13;;;;;;;;;;;;;;;10.47;87.97;102255.16;10239838;29;19922;-80
2023/06/02 03:51:15;;;;;;;;;;;;;;;10.50;87.11;102262.09;10238845;29;19929;-79
2023/06/02 03:56:16;;;;;;;;;;;;;;;10.58;86.54;102263.97;10239490;29;19918;-79
2023/06/02 04:01:17;;;;;;;;;;;;;;;10.59;86.12;102269.25;10239932;28;19918;-81
2023/06/02 04:06:17;;;;;;;;;;;;;;;10.59;85.69;102280.09;10238999;29;19915;-80
2023/06/02 04:11:22;;;;;;;;;;;;;;;10.62;85.30;102260.75;10238304;28;20398;-80
2023/06/02 04:16:22;;;;;;;;;;;;;;;10.63;84.84;102259.78;10238645;29;19949;-79
2023/06/02 04:21:23;;;;;;;;;;;;;;;10.66;85.00;102264.84;10240866;28;19964;-79
2023/06/02 04:26:24;;;;;;;;;;;;;;;10.73;85.54;102267.75;10279389;28;20277;-79
2023/06/02 04:31:43;;;;;;;;;;;;;;;10.78;85.82;102265.38;10296968;28;19929;-79
2023/06/02 04:36:45;;;;;;;;;;;;;;;10.81;86.04;102270.47;10299487;28;19918;-81
2023/06/02 04:41:46;;;;;;;;;;;;;;;10.91;84.97;102262.19;10278956;28;19918;-81
2023/06/02 04:46:47;;;;;;;;;;;;;;;10.92;85.78;102267.47;10297470;28;19914;-80
2023/06/02 04:51:47;;;;;;;;;;;;;;;10.99;85.03;102270.34;10279162;28;19914;-79
2023/06/02 04:56:48;;;;;;;;;;;;;;;11.10;84.11;102267.34;10278500;28;20374;-80
2023/06/02 05:01:48;;;;;;;;;;;;;;;11.07;84.59;102277.63;10296091;28;20207;-81
2023/06/02 05:06:49;;;;;;;;;;;;;;;11.11;84.38;102290.72;10292779;28;19918;-80
2023/06/02 05:11:50;;;;;;;;;;;;;;;11.08;84.14;102273.94;10292607;28;19965;-80
2023/06/02 05:16:51;;;;;;;;;;;;;;;11.07;84.67;102277.63;10292509;28;20431;-81
2023/06/02 05:21:52;;;;;;;;;;;;;;;11.05;84.36;102277.81;10295486;28;19918;-80
2023/06/02 05:26:52;;;;;;;;;;;;;;;11.17;84.03;102287.34;10293604;28;19918;-80
2023/06/02 05:31:53;;;;;;;;;;;;;;;11.20;84.00;102291.56;10293858;28;19926;-80
2023/06/02 05:36:53;;;;;;;;;;;;;;;11.40;83.19;102298.38;10277595;28;19914;-80
2023/06/02 05:41:53;;;;;;;;;;;;;;;11.50;82.24;102295.47;10276934;28;20013;-80
2023/06/02 05:46:54;;;;;;;;;;;;;;;11.33;81.72;102302.78;10276449;28;19982;-80
2023/06/02 05:51:54;;;;;;;;;;;;;;;11.37;82.37;102279.72;10274837;28;20349;-81
2023/06/02 05:56:54;;;;;;;;;;;;;;;11.44;81.95;102288.03;10275696;28;19914;-80
2023/06/02 06:01:55;;;;;;;;;;;;;;;11.60;81.85;102301.56;10292412;28;20388;-81
2023/06/02 06:06:57;;;;;;;;;;;;;;;11.71;80.95;102292.25;10275094;28;19920;-81
2023/06/02 06:11:57;;;;;;;;;;;;;;;11.70;80.46;102287.00;10292280;28;20013;-81
2023/06/02 06:16:58;;;;;;;;;;;;;;;11.78;80.18;102279.69;10274434;28;20088;-80
2023/06/02 06:21:58;;;;;;;;;;;;;;;11.89;80.10;102296.66;10275290;28;20009;-80
2023/06/02 06:26:58;;;;;;;;;;;;;;;12.02;79.89;102297.81;10276099;28;19992;-81
2023/06/02 06:31:59;;;;;;;;;;;;;;;12.10;79.26;102303.25;10276398;28;19918;-80
2023/06/02 06:36:59;;;;;;;;;;;;;;;12.13;78.41;102307.50;10279264;28;19936;-80
2023/06/02 06:42:00;;;;;;;;;;;;;;;12.14;78.48;102298.31;10282322;28;19914;-80
2023/06/02 06:47:00;;;;;;;;;;;;;;;12.22;78.72;102301.03;10282535;28;19918;-80
2023/06/02 06:52:01;;;;;;;;;;;;;;;12.34;78.00;102296.88;10283485;28;19941;-80
2023/06/02 06:57:01;;;;;;;;;;;;;;;12.48;78.02;102299.91;10283384;28;19929;-80
2023/06/02 07:02:01;;;;;;;;;;;;;;;12.72;78.30;102286.19;10284250;28;19976;-80
2023/06/02 07:07:01;;;;;;;;;;;;;;;12.92;77.81;102293.91;10303744;28;20029;-80
2023/06/02 07:12:02;;;;;;;;;;;;;;;13.08;77.12;102295.69;10283630;28;19940;-80
2023/06/02 07:17:03;;;;;;;;;;;;;;;13.17;76.58;102292.72;10301696;28;19922;-80
2023/06/02 07:22:04;;;;;;;;;;;;;;;13.41;75.43;102294.47;10316547;28;20005;-80
2023/06/02 07:27:04;;;;;;;;;;;;;;;13.53;75.96;102299.47;10301553;28;19945;-80
2023/06/02 07:32:05;;;;;;;;;;;;;;;13.57;74.46;102298.94;10281406;28;19985;-80
2023/06/02 07:37:05;;;;;;;;;;;;;;;13.69;72.61;102305.63;10280939;28;19960;-80
2023/06/02 07:42:06;;;;;;;;;;;;;;;13.89;73.03;102297.78;10314649;28;20354;-80
2023/06/02 07:47:07;;;;;;;;;;;;;;;14.20;73.31;102294.06;10283252;28;19932;-80
2023/06/02 07:52:07;;;;;;;;;;;;;;;14.38;73.03;102294.50;10315440;28;20001;-81
2023/06/02 07:57:08;;;;;;;;;;;;;;;14.53;71.77;102290.97;10280169;28;19918;-80
2023/06/02 08:02:08;;;;;;;;;;;;;;;14.88;70.09;102294.75;10281368;28;19956;-81
2023/06/02 08:07:08;;;;;;;;;;;;;;;14.74;67.35;102287.44;10297819;28;19914;-81
2023/06/02 08:12:09;;;;;;;;;;;;;;;14.70;63.97;102292.44;10280628;28;19914;-81
2023/06/02 08:17:12;;;;;;;;;;;;;;;15.10;66.80;102288.31;10281407;28;19914;-80
2023/06/02 08:22:13;;;;;;;;;;;;;;;15.47;66.43;102291.78;10281266;28;19917;-81
2023/06/02 08:27:14;;;;;;;;;;;;;;;15.88;64.53;102282.09;10299606;28;19918;-81
2023/06/02 08:32:14;;;;;;;;;;;;;;;16.56;59.98;102285.88;10297055;28;20016;-81
2023/06/02 08:37:16;;;;;;;;;;;;;;;16.87;62.23;102274.44;10279271;28;19953;-80
2023/06/02 08:42:17;;;;;;;;;;;;;;;16.90;58.43;102271.28;10280278;28;20257;-81
2023/06/02 08:47:18;;;;;;;;;;;;;;;16.82;61.58;102278.84;10295513;28;19937;-80
2023/06/02 08:52:22;;;;;;;;;;;;;;;16.23;58.96;102263.81;10277808;28;19984;-81
2023/06/02 08:57:22;;;;;;;;;;;;;;;15.79;60.66;102275.91;10278782;28;20009;-80
2023/06/02 09:02:23;;;;;;;;;;;;;;;16.40;63.29;102267.91;10295003;28;20024;-81
2023/06/02 09:07:23;;;;;;;;;;;;;;;16.62;63.39;102275.97;10277580;28;19928;-81
2023/06/02 09:12:23;;;;;;;;;;;;;;;16.56;62.25;102268.59;10296051;28;19918;-81
2023/06/02 09:17:27;;;;;;;;;;;;;;;16.45;61.27;102273.59;10278037;28;19952;-80
2023/06/02 09:22:27;;;;;;;;;;;;;;;16.37;60.44;102264.72;10278114;28;19918;-80
2023/06/02 09:27:28;;;;;;;;;;;;;;;15.85;62.06;102266.94;10293909;28;20373;-80
2023/06/02 09:32:28;;;;;;;;;;;;;;;15.94;64.41;102278.56;10276523;28;19918;-81
2023/06/02 09:37:28;;;;;;;;;;;;;;;15.99;65.02;102276.91;10276880;28;19921;-80
2023/06/02 09:42:32;;;;;;;;;;;;;;;16.07;65.20;102273.19;10276309;28;19913;-81
2023/06/02 09:47:36;;;;;;;;;;;;;;;15.94;64.95;102278.56;10279080;28;20353;-81
2023/06/02 09:52:36;;;;;;;;;;;;;;;15.85;65.63;102279.75;10275665;28;20526;-81
2023/06/02 09:57:36;;;;;;;;;;;;;;;15.63;67.20;102278.91;10292183;28;20102;-81
2023/06/02 10:02:37;;;;;;;;;;;;;;;15.73;68.62;102282.16;10276249;28;19964;-80
2023/06/02 10:08:06;;;;;;;;;;;;;;;15.94;68.26;102259.44;10276093;28;20269;-80
2023/06/02 10:13:16;;;;;;;;;;;;;;;16.05;69.13;102264.34;10230547;28;19941;-81
2023/06/02 10:18:34;;;;;;;;;;;;;;;15.83;70.28;102260.84;10300973;28;20347;-81
2023/06/02 10:23:38;;;;;;;;;;;;;;;15.78;70.31;102266.03;10283054;28;19922;-81
2023/06/02 10:28:38;;;;;;;;;;;;;;;15.83;70.87;102279.13;10301745;28;19914;-81
2023/06/02 10:33:45;;;;;;;;;;;;;;;16.23;70.13;102272.84;10284271;28;19914;-81
2023/06/02 10:38:46;;;;;;;;;;;;;;;16.36;69.67;102266.59;10283972;28;19960;-81
2023/06/02 10:44:12;;;;;;;;;;;;;;;16.60;69.19;102268.00;10283219;28;19975;-81
2023/06/02 10:49:31;;;;;;;;;;;;;;;16.82;69.63;102260.53;10270215;28;19920;-81
2023/06/02 10:54:31;;;;;;;;;;;;;;;17.53;67.82;102267.38;10301138;28;19921;-81
2023/06/02 10:59:34;;;;;;;;;;;;;;;17.50;67.57;102267.81;10282386;28;20357;-81
2023/06/02 11:04:35;;;;;;;;;;;;;;;17.55;67.60;102263.38;10283368;28;19925;-81
2023/06/02 11:09:35;;;;;;;;;;;;;;;17.67;64.61;102258.09;10298994;28;19936;-81
2023/06/02 11:14:54;;;;;;;;;;;;;;;18.08;65.20;102273.47;10282982;28;19925;-81
2023/06/02 11:19:56;;;;;;;;;;;;;;;18.06;63.07;102270.09;10282902;28;19914;-81
2023/06/02 11:24:56;;;;;;;;;;;;;;;17.82;64.58;102260.66;10299128;28;19929;-81
2023/06/02 11:30:05;;;;;;;;;;;;;;;17.87;64.57;102269.94;10285280;28;19918;-81
2023/06/02 11:35:07;;;;;;;;;;;;;;;17.98;64.31;102265.69;10281343;28;20016;-81
2023/06/02 11:40:11;;;;;;;;;;;;;;;18.34;64.50;102267.06;10281801;28;19947;-80
2023/06/02 11:45:21;;;;;;;;;;;;;;;18.52;64.61;102269.97;10281563;28;19968;-80
2023/06/02 11:50:21;;;;;;;;;;;;;;;18.63;63.01;102265.69;10280397;28;19980;-81
2023/06/02 11:55:25;;;;;;;;;;;;;;;18.53;64.37;102257.91;10296218;28;19972;-81
2023/06/02 12:00:25;;;;;;;;;;;;;;;18.60;64.39;102252.41;10297401;28;19968;-80
2023/06/02 12:05:34;;;;;;;;;;;;;;;18.44;62.70;102256.50;10282214;28;19984;-80
2023/06/02 12:10:34;;;;;;;;;;;;;;;18.21;65.05;102258.88;10278882;28;20423;-80
2023/06/02 12:15:35;;;;;;;;;;;;;;;18.08;64.30;102257.03;10279999;28;19972;-81
2023/06/02 12:20:36;;;;;;;;;;;;;;;18.51;62.91;102257.31;10279227;28;19929;-81
2023/06/02 12:25:37;;;;;;;;;;;;;;;18.12;62.58;102256.41;10279287;28;19922;-81
2023/06/02 12:30:38;;;;;;;;;;;;;;;17.91;65.33;102262.13;10278803;28;19921;-81
2023/06/02 12:35:38;;;;;;;;;;;;;;;18.46;64.41;102253.53;10278082;28;19918;-80
2023/06/02 12:40:40;;;;;;;;;;;;;;;17.76;64.77;102254.09;10279906;28;19925;-81
2023/06/02 12:45:41;;;;;;;;;;;;;;;18.21;66.86;102251.50;10310492;28;20016;-81
2023/06/02 12:50:42;;;;;;;;;;;;;;;18.84;63.43;102250.00;10294187;28;20372;-81
2023/06/02 12:55:44;;;;;;;;;;;;;;;18.80;64.54;102252.34;10295072;28;19961;-80
2023/06/02 13:00:44;;;;;;;;;;;;;;;19.10;62.65;102247.09;10295099;28;19921;-80
2023/06/02 13:06:14;;;;;;;;;;;;;;;19.29;62.93;102253.50;10294070;28;19918;-82
2023/06/02 13:11:14;;;;;;;;;;;;;;;18.64;61.41;102258.31;10276954;28;19954;-80
2023/06/02 13:16:15;;;;;;;;;;;;;;;18.57;64.12;102248.22;10294384;28;19958;-80
2023/06/02 13:21:16;;;;;;;;;;;;;;;18.77;62.09;102250.06;10276703;28;20009;-81
2023/06/02 13:26:16;;;;;;;;;;;;;;;18.55;63.66;102244.00;10292650;28;20470;-81
2023/06/02 13:31:16;;;;;;;;;;;;;;;18.72;62.91;102250.69;10292895;28;19925;-80
2023/06/02 13:36:17;;;;;;;;;;;;;;;19.10;61.72;102251.75;10276794;28;19914;-81
2023/06/02 13:41:17;;;;;;;;;;;;;;;19.15;62.67;102250.03;10275836;28;20096;-81
2023/06/02 13:46:18;;;;;;;;;;;;;;;19.50;60.86;102241.31;10275830;28;19914;-81
2023/06/02 13:51:18;;;;;;;;;;;;;;;20.78;59.77;102248.81;10293601;28;19914;-81
2023/06/02 13:56:18;;;;;;;;;;;;;;;20.44;57.99;102236.53;10276757;28;19918;-81
2023/06/02 14:01:20;;;;;;;;;;;;;;;20.36;57.26;102231.34;10277287;28;20288;-81
2023/06/02 14:06:20;;;;;;;;;;;;;;;19.85;60.09;102241.66;10275246;28;20353;-82
2023/06/02 14:11:22;;;;;;;;;;;;;;;19.91;59.06;102234.38;10293257;28;19973;-81
2023/06/02 14:16:22;;;;;;;;;;;;;;;20.00;61.22;102244.00;10275213;28;19918;-81
2023/06/02 14:21:24;;;;;;;;;;;;;;;20.50;58.24;102240.28;10275223;28;19918;-81
2023/06/02 14:26:25;;;;;;;;;;;;;;;20.91;56.25;102234.03;10291642;28;19925;-81
2023/06/02 14:31:25;;;;;;;;;;;;;;;21.45;59.20;102225.81;10278239;28;20344;-81
2023/06/02 14:36:27;;;;;;;;;;;;;;;21.24;58.49;102224.41;10280152;28;20349;-80
2023/06/02 14:41:28;;;;;;;;;;;;;;;20.73;62.00;102220.31;10283609;28;19925;-81
2023/06/02 14:46:28;;;;;;;;;;;;;;;20.59;63.07;102217.75;10282848;28;19960;-81
2023/06/02 14:51:28;;;;;;;;;;;;;;;21.10;63.64;102212.78;10279512;28;19919;-82
2023/06/02 14:56:29;;;;;;;;;;;;;;;21.41;63.23;102202.53;10283060;28;19917;-81
2023/06/02 15:01:29;;;;;;;;;;;;;;;21.85;63.52;102212.13;10302868;28;20301;-81
2023/06/02 15:06:29;;;;;;;;;;;;;;;21.98;64.07;102209.09;10289139;28;20001;-81
2023/06/02 15:11:30;;;;;;;;;;;;;;;21.83;64.29;102201.34;10286396;28;19922;-81
2023/06/02 15:16:31;;;;;;;;;;;;;;;21.69;64.47;102196.31;10291255;28;19922;-81
2023/06/02 15:21:31;;;;;;;;;;;;;;;21.82;65.77;102191.41;10290534;28;19930;-81
2023/06/02 15:26:32;;;;;;;;;;;;;;;21.62;62.58;102187.34;10288255;28;20296;-81
2023/06/02 15:31:32;;;;;;;;;;;;;;;21.68;64.87;102183.63;10304013;28;20105;-81
2023/06/02 15:36:32;;;;;;;;;;;;;;;20.70;64.52;102176.72;10285022;28;19966;-81
2023/06/02 15:41:33;;;;;;;;;;;;;;;20.47;66.11;102181.03;10286379;28;19922;-81
2023/06/02 15:46:33;;;;;;;;;;;;;;;20.23;65.55;102179.22;10282687;28;19922;-81
2023/06/02 15:51:37;;;;;;;;;;;;;;;20.08;67.38;102174.97;10283426;28;19929;-81
2023/06/02 15:56:37;;;;;;;;;;;;;;;19.23;67.66;102175.59;10299102;28;19914;-81
2023/06/02 16:01:39;;;;;;;;;;;;;;;19.31;70.04;102168.16;10288714;28;19976;-81
2023/06/02 16:06:39;;;;;;;;;;;;;;;19.56;69.85;102170.84;10284566;28;20005;-80
2023/06/02 16:11:41;;;;;;;;;;;;;;;20.03;69.45;102165.72;10284915;28;19918;-80
2023/06/02 16:16:41;;;;;;;;;;;;;;;19.85;68.88;102166.59;10284287;28;19972;-81
2023/06/02 16:21:42;;;;;;;;;;;;;;;19.14;68.72;102167.84;10283757;28;20349;-80
2023/06/02 16:26:43;;;;;;;;;;;;;;;19.08;68.03;102166.00;10300169;28;19925;-81
2023/06/02 16:31:43;;;;;;;;;;;;;;;18.63;66.76;102158.69;10283217;28;19918;-81
2023/06/02 16:36:44;;;;;;;;;;;;;;;18.27;67.91;102162.88;10289157;28;19956;-79
2023/06/02 16:41:44;;;;;;;;;;;;;;;17.82;67.44;102149.16;10303724;28;20344;-80
2023/06/02 16:46:45;;;;;;;;;;;;;;;17.43;68.82;102148.16;10284329;28;20417;-80
2023/06/02 16:51:45;;;;;;;;;;;;;;;17.41;69.49;102149.41;10285706;28;19957;-80
2023/06/02 16:56:45;;;;;;;;;;;;;;;17.52;69.11;102140.56;10281422;28;20373;-80
2023/06/02 17:01:46;;;;;;;;;;;;;;;17.39;68.09;102137.84;10280015;28;19918;-81
2023/06/02 17:06:46;;;;;;;;;;;;;;;17.15;68.07;102129.22;10296472;28;19918;-80
2023/06/02 17:11:46;;;;;;;;;;;;;;;17.06;67.37;102141.41;10283095;28;19914;-80
2023/06/02 17:16:47;;;;;;;;;;;;;;;17.00;67.02;102144.16;10285337;28;20320;-80
2023/06/02 17:21:47;;;;;;;;;;;;;;;16.98;68.72;102143.56;10301540;28;19918;-80
2023/06/02 17:26:48;;;;;;;;;;;;;;;16.90;68.45;102141.84;10299039;28;20376;-80
2023/06/02 17:31:48;;;;;;;;;;;;;;;16.88;70.63;102142.06;10298381;28;20396;-80
2023/06/02 17:36:48;;;;;;;;;;;;;;;16.86;69.01;102135.94;10297286;28;20108;-80
2023/06/02 17:41:49;;;;;;;;;;;;;;;16.79;70.01;102139.75;10279167;28;19918;-80
2023/06/02 17:46:50;;;;;;;;;;;;;;;16.79;69.68;102132.38;10311385;28;19918;-80
2023/06/02 17:51:50;;;;;;;;;;;;;;;16.77;70.16;102139.94;10282941;28;19960;-80
2023/06/02 17:56:51;;;;;;;;;;;;;;;16.60;75.04;102141.34;10277187;28;20337;-80
2023/06/02 18:01:51;;;;;;;;;;;;;;;16.55;72.57;102133.75;10294854;28;20011;-80
2023/06/02 18:06:51;;;;;;;;;;;;;;;16.47;73.59;102128.50;10277710;28;19953;-81
2023/06/02 18:11:52;;;;;;;;;;;;;;;16.27;77.18;102132.03;10308225;28;19918;-80
2023/06/02 18:16:53;;;;;;;;;;;;;;;16.18;80.43;102127.78;10293600;28;19974;-80
2023/06/02 18:21:54;;;;;;;;;;;;;;;16.07;79.66;102128.34;10308541;28;19929;-80
2023/06/02 18:26:55;;;;;;;;;;;;;;;15.99;81.45;102129.38;10276036;28;19944;-80
2023/06/02 18:31:55;;;;;;;;;;;;;;;15.94;83.72;102125.56;10280234;28;19918;-80
2023/06/02 18:36:55;;;;;;;;;;;;;;;15.85;85.68;102133.09;10287004;28;19918;-79
2023/06/02 18:41:56;;;;;;;;;;;;;;;15.73;83.49;102123.78;10282619;28;19961;-77
2023/06/02 18:46:56;;;;;;;;;;;;;;;15.66;84.55;102137.34;10282077;28;19922;-78
2023/06/02 18:51:56;;;;;;;;;;;;;;;15.57;88.18;102122.19;10282426;28;19918;-77
2023/06/02 18:56:59;;;;;;;;;;;;;;;15.48;91.81;102123.41;10298944;28;19918;-78
2023/06/02 19:01:59;;;;;;;;;;;;;;;15.42;87.86;102121.47;10281635;28;19918;-78
2023/06/02 19:07:00;;;;;;;;;;;;;;;15.27;88.48;102122.41;10298989;28;19922;-79
2023/06/02 19:12:00;;;;;;;;;;;;;;;15.19;88.91;102129.88;10281498;28;20284;-78
2023/06/02 19:17:02;;;;;;;;;;;;;;;15.06;88.11;102128.78;10297444;28;19918;-78
2023/06/02 19:22:03;;;;;;;;;;;;;;;14.96;88.67;102117.31;10282902;28;19918;-79
2023/06/02 19:27:03;;;;;;;;;;;;;;;14.91;89.78;102132.63;10297530;28;20016;-78
2023/06/02 19:32:06;;;;;;;;;;;;;;;14.81;90.30;102141.13;10298254;28;19922;-79
2023/06/02 19:37:07;;;;;;;;;;;;;;;14.72;90.16;102136.84;10297910;28;19921;-80
2023/06/02 19:42:07;;;;;;;;;;;;;;;14.64;91.77;102138.66;10279292;28;19924;-77
2023/06/02 19:47:08;;;;;;;;;;;;;;;14.57;91.68;102136.91;10298375;28;20004;-77
2023/06/02 19:52:08;;;;;;;;;;;;;;;14.54;91.01;102146.28;10296322;28;20309;-77
2023/06/02 19:57:09;;;;;;;;;;;;;;;14.48;93.51;102157.09;10296011;28;20266;-77
2023/06/02 20:02:10;;;;;;;;;;;;;;;14.43;93.37;102153.06;10279967;28;20018;-77
2023/06/02 20:07:10;;;;;;;;;;;;;;;14.39;93.77;102157.22;10296140;28;19922;-78
2023/06/02 20:12:11;;;;;;;;;;;;;;;14.38;94.87;102163.69;10279225;28;20277;-78
2023/06/02 20:17:12;;;;;;;;;;;;;;;14.36;95.06;102164.94;10296642;28;20341;-78
2023/06/02 20:22:12;;;;;;;;;;;;;;;14.34;97.02;102161.56;10279010;28;19993;-78
2023/06/02 20:27:12;;;;;;;;;;;;;;;14.30;99.24;102163.81;10279279;28;19928;-78
2023/06/02 20:32:13;;;;;;;;;;;;;;;14.25;97.91;102174.44;10279152;28;19965;-78
2023/06/02 20:37:13;;;;;;;;;;;;;;;14.22;100.00;102173.97;10277831;28;20084;-78
2023/06/02 20:42:14;;;;;;;;;;;;;;;14.19;99.62;102176.03;10279058;28;20338;-78
2023/06/02 20:47:14;;;;;;;;;;;;;;;14.13;100.00;102174.06;10277268;28;19918;-78
2023/06/02 20:52:15;;;;;;;;;;;;;;;14.08;100.00;102176.53;10277368;28;20005;-78
2023/06/02 20:57:15;;;;;;;;;;;;;;;14.05;100.00;102179.66;10275951;28;20273;-78
2023/06/02 21:02:16;;;;;;;;;;;;;;;14.00;100.00;102182.06;10276404;28;19922;-78
2023/06/02 21:07:16;;;;;;;;;;;;;;;13.93;100.00;102189.31;10276601;28;20246;-78
2023/06/02 21:12:16;;;;;;;;;;;;;;;13.85;100.00;102189.44;10292132;28;19968;-78
2023/06/02 21:17:17;;;;;;;;;;;;;;;13.82;100.00;102181.63;10275455;28;19945;-78
2023/06/02 21:22:17;;;;;;;;;;;;;;;13.79;100.00;102187.47;10275973;28;19918;-78
2023/06/02 21:27:18;;;;;;;;;;;;;;;13.70;100.00;102192.13;10275422;28;20016;-78
2023/06/02 21:32:18;;;;;;;;;;;;;;;13.63;100.00;102181.16;10276011;28;19917;-78
2023/06/02 21:37:18;;;;;;;;;;;;;;;13.55;100.00;102189.38;10292595;28;19924;-78
2023/06/02 21:42:20;;;;;;;;;;;;;;;13.48;100.00;102194.72;10293065;28;19918;-79
2023/06/02 21:47:20;;;;;;;;;;;;;;;13.43;100.00;102202.63;10274809;28;19918;-77
2023/06/02 21:52:20;;;;;;;;;;;;;;;13.36;100.00;102182.59;10293279;28;19976;-77
2023/06/02 21:57:21;;;;;;;;;;;;;;;13.29;100.00;102194.41;10292185;28;19918;-78
2023/06/02 22:02:21;;;;;;;;;;;;;;;13.25;100.00;102191.22;10275811;28;19996;-79
2023/06/02 22:07:22;;;;;;;;;;;;;;;13.19;100.00;102190.03;10274580;28;19929;-78
2023/06/02 22:12:22;;;;;;;;;;;;;;;13.12;100.00;102188.25;10293237;28;20289;-80
2023/06/02 22:17:23;;;;;;;;;;;;;;;13.06;100.00;102181.66;10276472;28;19921;-79
2023/06/02 22:22:23;;;;;;;;;;;;;;;13.01;100.00;102189.50;10293297;28;20000;-79
2023/06/02 22:27:23;;;;;;;;;;;;;;;12.91;100.00;102186.19;10276386;28;19929;-79
2023/06/02 22:32:24;;;;;;;;;;;;;;;12.85;100.00;102181.47;10293737;28;20009;-79
2023/06/02 22:37:25;;;;;;;;;;;;;;;12.82;100.00;102188.13;10276708;28;19916;-79
2023/06/02 22:42:26;;;;;;;;;;;;;;;12.77;100.00;102185.94;10277567;28;19918;-79
2023/06/02 22:47:27;;;;;;;;;;;;;;;12.74;100.00;102182.75;10291854;28;19922;-79
2023/06/02 22:52:27;;;;;;;;;;;;;;;12.67;100.00;102184.50;10275307;28;20400;-79
2023/06/02 22:57:27;;;;;;;;;;;;;;;12.63;100.00;102183.16;10276705;28;19941;-79
2023/06/02 23:02:28;;;;;;;;;;;;;;;12.60;100.00;102168.03;10291531;28;19918;-79
2023/06/02 23:07:30;;;;;;;;;;;;;;;12.55;100.00;102181.34;10275514;28;19965;-80
2023/06/02 23:12:31;;;;;;;;;;;;;;;12.50;100.00;102178.31;10291883;28;20004;-80
2023/06/02 23:17:31;;;;;;;;;;;;;;;12.42;100.00;102184.66;10293497;28;20017;-80
2023/06/02 23:22:31;;;;;;;;;;;;;;;12.40;100.00;102191.28;10281827;28;19957;-79
2023/06/02 23:27:32;;;;;;;;;;;;;;;12.33;100.00;102189.25;10280219;28;19922;-79
2023/06/02 23:32:32;;;;;;;;;;;;;;;12.31;100.00;102185.88;10281751;28;19941;-80
2023/06/02 23:37:33;;;;;;;;;;;;;;;12.27;100.00;102189.13;10280830;28;20384;-79
2023/06/02 23:42:35;;;;;;;;;;;;;;;12.22;100.00;102194.22;10296041;28;19922;-79
2023/06/02 23:47:35;;;;;;;;;;;;;;;12.17;100.00;102183.91;10279664;28;20334;-79
2023/06/02 23:52:36;;;;;;;;;;;;;;;12.15;100.00;102194.09;10279092;28;19914;-79
2023/06/02 23:57:36;;;;;;;;;;;;;;;12.12;100.00;102193.59;10279616;28;19925;-79
